Mackenzie Airport
CYZY : rendu visible

Aérodrome :











RETROUVEZ-NOUS SUR...

 
LOGIN :

S'inscrire | Disclaimer

   EN    FR    IT 

 









Légende :    VFR   VFR Marginal   IFR   IFR Intensif   IFR Très Intensif
Visi : 
Plafond : 
>= 8 km
>= 3000ft
5 à 8 km
1000 à 3000 ft
1500m à 5 km
500 à 1000 ft
800 à 1500m
200 à 500 ft
< 800m
< 200 ft
Symboles :   Orages  Brouillard  Fortes neiges  Fortes précipitations  Vent > 20 kt






- Altitude de l'aérodrome : 2264 ft
- Code IATA : YZY


CYZY - Mackenzie

DERNIER METAR :
  • 201631Z AUTO 16009KT 9SM OVC010 M02/M03 A3019 RMK SLP265

METARs EXPIRÉS :
  • 201600Z AUTO 17008KT 9SM OVC008 M02/M03 A3019 RMK SLP265
  • 201500Z AUTO 17008KT 9SM OVC010 M02/M03 A3018 RMK SLP262
  • 201400Z AUTO 16005KT 9SM OVC010 M02/M03 A3019 RMK SLP263

TAF TAF CYZY
Valide du 20 à 15h jusqu'au 21 à 03h UTC


201438Z 2015/2103 16005KT P6SM SCT008 OVC015
TEMPO 2015/2020 4SM BR BKN008 OVC015
FM202000 16008KT P6SM SCT015
TEMPO 2020/2022 BKN015 RMK FCST BASED ON AUTO OBS. NXT FCST BY 201900Z



MET'MAP, la Météo Aéronautique d'un coup d'oeil ! - Copyright ORBIFLY Décembre 2007 - Disclaimer

ORBIFLY MET'MAP TEAM :

Programmation & Développement : Alexandra Zaïnal
Conception & Développement : Baudouin d'Aumeries
Co-Programmation & Développement : Marc-Olivier Méhu
Soutien technique & logistique : Manuel Goepfert

Contact : metmap@orbifly.com




SOURCES & CREDITS :

   NOAA       Earth
Advisory